sensor_id;sensor_type;location;lat;lon;timestamp;P1;durP1;ratioP1;P2;durP2;ratioP2
42198;SDS011;27868;45.184;5.786;2022-10-31T00:02:06;14.77;;;7.25;;
42198;SDS011;27868;45.184;5.786;2022-10-31T00:04:51;10.93;;;6.63;;
42198;SDS011;27868;45.184;5.786;2022-10-31T00:07:35;11.75;;;6.68;;
42198;SDS011;27868;45.184;5.786;2022-10-31T00:10:20;17.02;;;6.18;;
42198;SDS011;27868;45.184;5.786;2022-10-31T00:13:04;18.23;;;6.20;;
42198;SDS011;27868;45.184;5.786;2022-10-31T00:15:49;14.38;;;6.95;;
42198;SDS011;27868;45.184;5.786;2022-10-31T00:18:34;12.88;;;5.80;;
42198;SDS011;27868;45.184;5.786;2022-10-31T00:21:18;10.85;;;5.68;;
42198;SDS011;27868;45.184;5.786;2022-10-31T00:24:04;11.25;;;5.88;;
42198;SDS011;27868;45.184;5.786;2022-10-31T00:26:49;12.93;;;6.00;;
42198;SDS011;27868;45.184;5.786;2022-10-31T00:29:35;11.80;;;6.68;;
42198;SDS011;27868;45.184;5.786;2022-10-31T00:32:19;13.98;;;6.07;;
42198;SDS011;27868;45.184;5.786;2022-10-31T00:35:04;12.20;;;6.00;;
42198;SDS011;27868;45.184;5.786;2022-10-31T00:37:49;12.52;;;6.30;;
42198;SDS011;27868;45.184;5.786;2022-10-31T00:40:34;16.30;;;5.85;;
42198;SDS011;27868;45.184;5.786;2022-10-31T00:43:18;15.82;;;6.28;;
42198;SDS011;27868;45.184;5.786;2022-10-31T00:46:03;12.63;;;6.45;;
42198;SDS011;27868;45.184;5.786;2022-10-31T00:48:48;14.18;;;7.00;;
42198;SDS011;27868;45.184;5.786;2022-10-31T00:51:32;13.88;;;6.13;;
42198;SDS011;27868;45.184;5.786;2022-10-31T00:54:17;17.02;;;6.80;;
42198;SDS011;27868;45.184;5.786;2022-10-31T00:57:01;16.02;;;6.78;;
42198;SDS011;27868;45.184;5.786;2022-10-31T00:59:46;11.93;;;5.95;;
42198;SDS011;27868;45.184;5.786;2022-10-31T01:02:31;13.20;;;6.78;;
42198;SDS011;27868;45.184;5.786;2022-10-31T01:05:16;14.00;;;5.60;;
42198;SDS011;27868;45.184;5.786;2022-10-31T01:08:00;10.75;;;5.97;;
42198;SDS011;27868;45.184;5.786;2022-10-31T01:10:45;16.38;;;6.70;;
42198;SDS011;27868;45.184;5.786;2022-10-31T01:13:29;14.27;;;6.90;;
42198;SDS011;27868;45.184;5.786;2022-10-31T01:16:15;16.50;;;6.65;;
42198;SDS011;27868;45.184;5.786;2022-10-31T01:19:01;14.93;;;6.88;;
42198;SDS011;27868;45.184;5.786;2022-10-31T01:21:46;12.50;;;5.93;;
42198;SDS011;27868;45.184;5.786;2022-10-31T01:24:31;12.88;;;7.03;;
42198;SDS011;27868;45.184;5.786;2022-10-31T01:27:16;14.27;;;6.72;;
42198;SDS011;27868;45.184;5.786;2022-10-31T01:30:00;13.20;;;6.20;;
42198;SDS011;27868;45.184;5.786;2022-10-31T01:32:45;13.27;;;6.85;;
42198;SDS011;27868;45.184;5.786;2022-10-31T01:35:30;11.15;;;6.03;;
42198;SDS011;27868;45.184;5.786;2022-10-31T01:38:14;15.30;;;6.47;;
42198;SDS011;27868;45.184;5.786;2022-10-31T01:40:59;13.65;;;5.93;;
42198;SDS011;27868;45.184;5.786;2022-10-31T01:46:34;14.77;;;6.68;;
42198;SDS011;27868;45.184;5.786;2022-10-31T01:52:43;17.33;;;7.32;;
42198;SDS011;27868;45.184;5.786;2022-10-31T01:58:20;14.57;;;6.43;;
42198;SDS011;27868;45.184;5.786;2022-10-31T02:01:10;11.32;;;5.75;;
42198;SDS011;27868;45.184;5.786;2022-10-31T02:03:56;12.15;;;5.63;;
42198;SDS011;27868;45.184;5.786;2022-10-31T02:06:43;11.80;;;6.00;;
42198;SDS011;27868;45.184;5.786;2022-10-31T02:09:45;13.77;;;6.30;;
42198;SDS011;27868;45.184;5.786;2022-10-31T02:12:31;13.82;;;6.05;;
42198;SDS011;27868;45.184;5.786;2022-10-31T02:15:18;14.07;;;6.25;;
42198;SDS011;27868;45.184;5.786;2022-10-31T02:18:03;10.95;;;5.68;;
42198;SDS011;27868;45.184;5.786;2022-10-31T02:26:53;12.30;;;6.03;;
42198;SDS011;27868;45.184;5.786;2022-10-31T02:39:11;15.65;;;5.53;;
42198;SDS011;27868;45.184;5.786;2022-10-31T02:42:08;14.18;;;5.70;;
42198;SDS011;27868;45.184;5.786;2022-10-31T02:45:00;12.70;;;6.07;;
42198;SDS011;27868;45.184;5.786;2022-10-31T02:47:58;13.80;;;6.57;;
42198;SDS011;27868;45.184;5.786;2022-10-31T02:50:50;13.15;;;6.10;;
42198;SDS011;27868;45.184;5.786;2022-10-31T02:53:39;9.73;;;5.28;;
42198;SDS011;27868;45.184;5.786;2022-10-31T02:56:24;11.48;;;6.13;;
42198;SDS011;27868;45.184;5.786;2022-10-31T02:59:08;11.70;;;5.85;;
42198;SDS011;27868;45.184;5.786;2022-10-31T03:02:06;12.93;;;5.57;;
42198;SDS011;27868;45.184;5.786;2022-10-31T03:05:12;13.85;;;6.22;;
42198;SDS011;27868;45.184;5.786;2022-10-31T03:11:11;11.38;;;5.70;;
42198;SDS011;27868;45.184;5.786;2022-10-31T03:14:05;13.32;;;5.63;;
42198;SDS011;27868;45.184;5.786;2022-10-31T03:16:56;12.23;;;6.18;;
42198;SDS011;27868;45.184;5.786;2022-10-31T03:19:46;9.07;;;5.75;;
42198;SDS011;27868;45.184;5.786;2022-10-31T03:22:33;10.80;;;5.78;;
42198;SDS011;27868;45.184;5.786;2022-10-31T03:25:19;10.65;;;5.20;;
42198;SDS011;27868;45.184;5.786;2022-10-31T03:28:05;12.73;;;5.40;;
42198;SDS011;27868;45.184;5.786;2022-10-31T03:30:52;10.75;;;5.88;;
42198;SDS011;27868;45.184;5.786;2022-10-31T03:33:40;15.32;;;6.30;;
42198;SDS011;27868;45.184;5.786;2022-10-31T03:36:28;11.82;;;6.60;;
42198;SDS011;27868;45.184;5.786;2022-10-31T03:39:15;15.07;;;7.13;;
42198;SDS011;27868;45.184;5.786;2022-10-31T03:42:20;16.40;;;7.10;;
42198;SDS011;27868;45.184;5.786;2022-10-31T03:45:16;13.20;;;6.28;;
42198;SDS011;27868;45.184;5.786;2022-10-31T03:53:52;10.27;;;6.07;;
42198;SDS011;27868;45.184;5.786;2022-10-31T03:56:41;11.73;;;5.18;;
42198;SDS011;27868;45.184;5.786;2022-10-31T03:59:32;12.25;;;5.85;;
42198;SDS011;27868;45.184;5.786;2022-10-31T04:02:22;11.03;;;5.53;;
42198;SDS011;27868;45.184;5.786;2022-10-31T04:05:11;12.38;;;5.68;;
42198;SDS011;27868;45.184;5.786;2022-10-31T04:07:59;11.40;;;6.13;;
42198;SDS011;27868;45.184;5.786;2022-10-31T04:10:47;10.48;;;5.35;;
42198;SDS011;27868;45.184;5.786;2022-10-31T04:13:33;10.65;;;5.68;;
42198;SDS011;27868;45.184;5.786;2022-10-31T04:16:21;14.82;;;6.45;;
42198;SDS011;27868;45.184;5.786;2022-10-31T04:19:07;15.32;;;5.43;;
42198;SDS011;27868;45.184;5.786;2022-10-31T04:21:52;9.63;;;5.70;;
42198;SDS011;27868;45.184;5.786;2022-10-31T04:24:37;16.02;;;6.43;;
42198;SDS011;27868;45.184;5.786;2022-10-31T04:27:24;11.43;;;5.60;;
42198;SDS011;27868;45.184;5.786;2022-10-31T04:30:09;14.65;;;6.07;;
42198;SDS011;27868;45.184;5.786;2022-10-31T04:32:53;18.85;;;6.90;;
42198;SDS011;27868;45.184;5.786;2022-10-31T04:35:38;15.20;;;6.30;;
42198;SDS011;27868;45.184;5.786;2022-10-31T04:38:22;15.75;;;7.55;;
42198;SDS011;27868;45.184;5.786;2022-10-31T04:41:07;13.85;;;7.13;;
42198;SDS011;27868;45.184;5.786;2022-10-31T04:43:51;16.70;;;6.60;;
42198;SDS011;27868;45.184;5.786;2022-10-31T04:46:36;16.00;;;6.53;;
42198;SDS011;27868;45.184;5.786;2022-10-31T04:49:21;15.63;;;7.25;;
42198;SDS011;27868;45.184;5.786;2022-10-31T04:52:05;12.95;;;6.68;;
42198;SDS011;27868;45.184;5.786;2022-10-31T04:54:51;16.33;;;6.63;;
42198;SDS011;27868;45.184;5.786;2022-10-31T04:57:42;14.85;;;7.53;;
42198;SDS011;27868;45.184;5.786;2022-10-31T05:00:28;16.05;;;6.95;;
42198;SDS011;27868;45.184;5.786;2022-10-31T05:03:13;13.95;;;6.75;;
42198;SDS011;27868;45.184;5.786;2022-10-31T05:05:58;16.35;;;8.35;;
42198;SDS011;27868;45.184;5.786;2022-10-31T05:08:42;14.65;;;7.78;;
42198;SDS011;27868;45.184;5.786;2022-10-31T05:11:27;15.07;;;7.13;;
42198;SDS011;27868;45.184;5.786;2022-10-31T05:14:11;20.83;;;7.28;;
42198;SDS011;27868;45.184;5.786;2022-10-31T05:16:56;15.57;;;7.55;;
42198;SDS011;27868;45.184;5.786;2022-10-31T05:19:40;16.42;;;7.50;;
42198;SDS011;27868;45.184;5.786;2022-10-31T05:22:25;15.48;;;6.88;;
42198;SDS011;27868;45.184;5.786;2022-10-31T05:25:09;21.65;;;7.50;;
42198;SDS011;27868;45.184;5.786;2022-10-31T05:27:55;13.38;;;6.30;;
42198;SDS011;27868;45.184;5.786;2022-10-31T05:30:40;12.43;;;5.80;;
42198;SDS011;27868;45.184;5.786;2022-10-31T05:33:24;12.50;;;5.88;;
42198;SDS011;27868;45.184;5.786;2022-10-31T05:36:09;11.60;;;5.60;;
42198;SDS011;27868;45.184;5.786;2022-10-31T05:38:54;11.52;;;5.18;;
42198;SDS011;27868;45.184;5.786;2022-10-31T05:41:39;10.27;;;5.35;;
42198;SDS011;27868;45.184;5.786;2022-10-31T05:44:23;13.32;;;5.47;;
42198;SDS011;27868;45.184;5.786;2022-10-31T05:47:08;11.77;;;5.53;;
42198;SDS011;27868;45.184;5.786;2022-10-31T05:49:52;11.82;;;5.35;;
42198;SDS011;27868;45.184;5.786;2022-10-31T05:52:37;14.52;;;6.28;;
42198;SDS011;27868;45.184;5.786;2022-10-31T05:55:21;15.52;;;5.50;;
42198;SDS011;27868;45.184;5.786;2022-10-31T05:58:06;11.73;;;5.45;;
42198;SDS011;27868;45.184;5.786;2022-10-31T06:00:50;12.88;;;6.13;;
42198;SDS011;27868;45.184;5.786;2022-10-31T06:03:35;11.77;;;7.10;;
42198;SDS011;27868;45.184;5.786;2022-10-31T06:06:19;9.80;;;5.20;;
42198;SDS011;27868;45.184;5.786;2022-10-31T06:09:04;10.77;;;5.20;;
42198;SDS011;27868;45.184;5.786;2022-10-31T06:11:48;13.68;;;5.35;;
42198;SDS011;27868;45.184;5.786;2022-10-31T06:14:33;12.90;;;5.78;;
42198;SDS011;27868;45.184;5.786;2022-10-31T06:17:17;11.38;;;5.93;;
42198;SDS011;27868;45.184;5.786;2022-10-31T06:20:03;16.38;;;5.95;;
42198;SDS011;27868;45.184;5.786;2022-10-31T06:22:48;14.93;;;6.82;;
42198;SDS011;27868;45.184;5.786;2022-10-31T06:25:32;13.73;;;6.28;;
42198;SDS011;27868;45.184;5.786;2022-10-31T06:28:17;11.57;;;5.78;;
42198;SDS011;27868;45.184;5.786;2022-10-31T06:31:02;10.65;;;5.28;;
42198;SDS011;27868;45.184;5.786;2022-10-31T06:33:48;15.43;;;5.80;;
42198;SDS011;27868;45.184;5.786;2022-10-31T06:36:32;14.15;;;6.05;;
42198;SDS011;27868;45.184;5.786;2022-10-31T06:39:17;13.93;;;6.80;;
42198;SDS011;27868;45.184;5.786;2022-10-31T06:42:01;16.35;;;6.38;;
42198;SDS011;27868;45.184;5.786;2022-10-31T06:44:47;9.77;;;5.72;;
42198;SDS011;27868;45.184;5.786;2022-10-31T06:47:31;10.98;;;5.97;;
42198;SDS011;27868;45.184;5.786;2022-10-31T06:50:16;13.30;;;6.40;;
42198;SDS011;27868;45.184;5.786;2022-10-31T06:53:00;12.68;;;6.18;;
42198;SDS011;27868;45.184;5.786;2022-10-31T06:55:45;15.65;;;6.43;;
42198;SDS011;27868;45.184;5.786;2022-10-31T06:58:29;11.80;;;5.47;;
42198;SDS011;27868;45.184;5.786;2022-10-31T07:01:14;14.35;;;6.05;;
42198;SDS011;27868;45.184;5.786;2022-10-31T07:03:58;12.93;;;5.78;;
42198;SDS011;27868;45.184;5.786;2022-10-31T07:06:45;13.43;;;5.72;;
42198;SDS011;27868;45.184;5.786;2022-10-31T07:09:31;11.32;;;5.80;;
42198;SDS011;27868;45.184;5.786;2022-10-31T07:12:19;13.80;;;6.50;;
42198;SDS011;27868;45.184;5.786;2022-10-31T07:15:03;15.40;;;7.28;;
42198;SDS011;27868;45.184;5.786;2022-10-31T07:17:49;13.07;;;6.50;;
42198;SDS011;27868;45.184;5.786;2022-10-31T07:20:33;9.27;;;5.78;;
42198;SDS011;27868;45.184;5.786;2022-10-31T07:23:18;18.30;;;5.80;;
42198;SDS011;27868;45.184;5.786;2022-10-31T07:26:03;13.93;;;5.72;;
42198;SDS011;27868;45.184;5.786;2022-10-31T07:28:48;13.65;;;6.03;;
42198;SDS011;27868;45.184;5.786;2022-10-31T07:31:32;14.25;;;6.43;;
42198;SDS011;27868;45.184;5.786;2022-10-31T07:34:17;12.70;;;5.80;;
42198;SDS011;27868;45.184;5.786;2022-10-31T07:37:01;12.27;;;5.75;;
42198;SDS011;27868;45.184;5.786;2022-10-31T07:39:46;14.88;;;5.72;;
42198;SDS011;27868;45.184;5.786;2022-10-31T07:42:37;16.70;;;6.38;;
42198;SDS011;27868;45.184;5.786;2022-10-31T07:45:22;11.35;;;5.45;;
42198;SDS011;27868;45.184;5.786;2022-10-31T07:48:07;17.23;;;6.13;;
42198;SDS011;27868;45.184;5.786;2022-10-31T07:50:51;18.23;;;6.97;;
42198;SDS011;27868;45.184;5.786;2022-10-31T07:53:36;18.02;;;6.85;;
42198;SDS011;27868;45.184;5.786;2022-10-31T07:56:20;17.27;;;6.38;;
42198;SDS011;27868;45.184;5.786;2022-10-31T07:59:05;12.10;;;6.25;;
42198;SDS011;27868;45.184;5.786;2022-10-31T08:01:50;17.25;;;7.05;;
42198;SDS011;27868;45.184;5.786;2022-10-31T08:04:34;13.63;;;6.43;;
42198;SDS011;27868;45.184;5.786;2022-10-31T08:07:19;17.20;;;6.57;;
42198;SDS011;27868;45.184;5.786;2022-10-31T08:10:04;14.35;;;6.65;;
42198;SDS011;27868;45.184;5.786;2022-10-31T08:12:59;16.98;;;6.95;;
42198;SDS011;27868;45.184;5.786;2022-10-31T08:15:45;15.77;;;6.55;;
42198;SDS011;27868;45.184;5.786;2022-10-31T08:18:34;13.65;;;6.50;;
42198;SDS011;27868;45.184;5.786;2022-10-31T08:21:21;14.15;;;5.45;;
42198;SDS011;27868;45.184;5.786;2022-10-31T08:24:06;24.92;;;6.50;;
42198;SDS011;27868;45.184;5.786;2022-10-31T08:26:50;15.68;;;6.07;;
42198;SDS011;27868;45.184;5.786;2022-10-31T08:29:36;15.65;;;6.88;;
42198;SDS011;27868;45.184;5.786;2022-10-31T08:32:20;15.73;;;6.70;;
42198;SDS011;27868;45.184;5.786;2022-10-31T08:35:05;14.85;;;6.35;;
42198;SDS011;27868;45.184;5.786;2022-10-31T08:37:54;13.68;;;5.93;;
42198;SDS011;27868;45.184;5.786;2022-10-31T08:40:39;14.10;;;6.10;;
42198;SDS011;27868;45.184;5.786;2022-10-31T08:43:24;17.23;;;7.05;;
42198;SDS011;27868;45.184;5.786;2022-10-31T08:46:08;14.98;;;6.60;;
42198;SDS011;27868;45.184;5.786;2022-10-31T08:48:53;15.82;;;5.80;;
42198;SDS011;27868;45.184;5.786;2022-10-31T08:51:37;16.42;;;6.95;;
42198;SDS011;27868;45.184;5.786;2022-10-31T08:54:22;18.27;;;7.13;;
42198;SDS011;27868;45.184;5.786;2022-10-31T08:57:06;11.95;;;6.30;;
42198;SDS011;27868;45.184;5.786;2022-10-31T08:59:51;14.35;;;5.68;;
42198;SDS011;27868;45.184;5.786;2022-10-31T09:02:35;12.07;;;5.80;;
42198;SDS011;27868;45.184;5.786;2022-10-31T09:05:22;13.77;;;5.10;;
42198;SDS011;27868;45.184;5.786;2022-10-31T09:08:08;10.10;;;5.20;;
42198;SDS011;27868;45.184;5.786;2022-10-31T09:10:55;14.63;;;4.93;;
42198;SDS011;27868;45.184;5.786;2022-10-31T09:13:40;17.05;;;5.93;;
42198;SDS011;27868;45.184;5.786;2022-10-31T09:16:25;10.88;;;5.15;;
42198;SDS011;27868;45.184;5.786;2022-10-31T09:19:10;12.05;;;5.53;;
42198;SDS011;27868;45.184;5.786;2022-10-31T09:21:54;13.05;;;5.50;;
42198;SDS011;27868;45.184;5.786;2022-10-31T09:24:39;15.93;;;6.85;;
42198;SDS011;27868;45.184;5.786;2022-10-31T09:27:23;16.05;;;7.00;;
42198;SDS011;27868;45.184;5.786;2022-10-31T09:30:08;16.80;;;7.22;;
42198;SDS011;27868;45.184;5.786;2022-10-31T09:33:00;18.23;;;7.38;;
42198;SDS011;27868;45.184;5.786;2022-10-31T09:35:46;13.45;;;7.20;;
42198;SDS011;27868;45.184;5.786;2022-10-31T09:38:31;19.50;;;7.15;;
42198;SDS011;27868;45.184;5.786;2022-10-31T09:47:38;16.35;;;6.18;;
42198;SDS011;27868;45.184;5.786;2022-10-31T09:50:48;11.13;;;5.13;;
42198;SDS011;27868;45.184;5.786;2022-10-31T09:53:44;12.18;;;5.75;;
42198;SDS011;27868;45.184;5.786;2022-10-31T09:56:36;15.80;;;6.13;;
42198;SDS011;27868;45.184;5.786;2022-10-31T09:59:24;14.77;;;5.97;;
42198;SDS011;27868;45.184;5.786;2022-10-31T10:05:27;12.73;;;4.82;;
42198;SDS011;27868;45.184;5.786;2022-10-31T10:08:18;10.63;;;4.55;;
42198;SDS011;27868;45.184;5.786;2022-10-31T10:14:42;12.32;;;4.43;;
42198;SDS011;27868;45.184;5.786;2022-10-31T10:17:48;9.43;;;4.25;;
42198;SDS011;27868;45.184;5.786;2022-10-31T10:29:50;12.45;;;4.60;;
42198;SDS011;27868;45.184;5.786;2022-10-31T10:32:56;8.30;;;3.70;;
42198;SDS011;27868;45.184;5.786;2022-10-31T10:35:45;12.05;;;3.72;;
42198;SDS011;27868;45.184;5.786;2022-10-31T10:41:39;8.23;;;3.90;;
42198;SDS011;27868;45.184;5.786;2022-10-31T10:44:28;10.07;;;4.18;;
42198;SDS011;27868;45.184;5.786;2022-10-31T10:47:52;9.35;;;3.63;;
42198;SDS011;27868;45.184;5.786;2022-10-31T10:50:44;9.98;;;3.67;;
42198;SDS011;27868;45.184;5.786;2022-10-31T10:53:39;8.02;;;3.50;;
42198;SDS011;27868;45.184;5.786;2022-10-31T10:56:57;11.45;;;3.85;;
42198;SDS011;27868;45.184;5.786;2022-10-31T10:59:50;9.05;;;3.75;;
42198;SDS011;27868;45.184;5.786;2022-10-31T11:02:35;15.18;;;3.72;;
42198;SDS011;27868;45.184;5.786;2022-10-31T11:05:24;12.15;;;4.05;;
42198;SDS011;27868;45.184;5.786;2022-10-31T11:08:33;11.85;;;4.13;;
42198;SDS011;27868;45.184;5.786;2022-10-31T11:11:26;11.70;;;4.15;;
42198;SDS011;27868;45.184;5.786;2022-10-31T11:14:15;11.27;;;3.80;;
42198;SDS011;27868;45.184;5.786;2022-10-31T11:17:07;16.25;;;5.28;;
42198;SDS011;27868;45.184;5.786;2022-10-31T11:22:49;10.85;;;3.85;;
42198;SDS011;27868;45.184;5.786;2022-10-31T11:28:39;9.43;;;4.05;;
42198;SDS011;27868;45.184;5.786;2022-10-31T11:31:24;10.20;;;4.32;;
42198;SDS011;27868;45.184;5.786;2022-10-31T11:37:24;13.80;;;4.00;;
42198;SDS011;27868;45.184;5.786;2022-10-31T11:40:14;14.05;;;3.97;;
42198;SDS011;27868;45.184;5.786;2022-10-31T11:43:12;7.25;;;3.30;;
42198;SDS011;27868;45.184;5.786;2022-10-31T11:46:10;8.02;;;3.83;;
42198;SDS011;27868;45.184;5.786;2022-10-31T11:49:02;7.05;;;3.45;;
42198;SDS011;27868;45.184;5.786;2022-10-31T11:51:50;7.47;;;3.50;;
42198;SDS011;27868;45.184;5.786;2022-10-31T11:54:44;13.45;;;4.10;;
42198;SDS011;27868;45.184;5.786;2022-10-31T11:57:33;13.55;;;4.30;;
42198;SDS011;27868;45.184;5.786;2022-10-31T12:00:37;10.82;;;3.80;;
42198;SDS011;27868;45.184;5.786;2022-10-31T12:03:42;12.18;;;3.70;;
42198;SDS011;27868;45.184;5.786;2022-10-31T12:06:39;9.73;;;4.03;;
42198;SDS011;27868;45.184;5.786;2022-10-31T12:09:27;8.75;;;3.63;;
42198;SDS011;27868;45.184;5.786;2022-10-31T12:15:31;10.20;;;3.78;;
42198;SDS011;27868;45.184;5.786;2022-10-31T12:18:22;12.73;;;3.60;;
42198;SDS011;27868;45.184;5.786;2022-10-31T12:40:26;8.43;;;2.80;;
42198;SDS011;27868;45.184;5.786;2022-10-31T12:43:32;10.85;;;3.38;;
42198;SDS011;27868;45.184;5.786;2022-10-31T12:46:29;8.50;;;3.38;;
42198;SDS011;27868;45.184;5.786;2022-10-31T12:52:17;9.18;;;3.13;;
42198;SDS011;27868;45.184;5.786;2022-10-31T12:58:34;12.27;;;3.22;;
42198;SDS011;27868;45.184;5.786;2022-10-31T13:01:41;6.50;;;3.00;;
42198;SDS011;27868;45.184;5.786;2022-10-31T13:07:30;11.27;;;3.90;;
42198;SDS011;27868;45.184;5.786;2022-10-31T13:10:21;10.25;;;3.88;;
42198;SDS011;27868;45.184;5.786;2022-10-31T13:13:30;7.45;;;2.85;;
42198;SDS011;27868;45.184;5.786;2022-10-31T13:16:22;8.80;;;3.10;;
42198;SDS011;27868;45.184;5.786;2022-10-31T13:19:19;7.95;;;3.22;;
42198;SDS011;27868;45.184;5.786;2022-10-31T13:22:16;10.75;;;3.20;;
42198;SDS011;27868;45.184;5.786;2022-10-31T13:25:15;8.65;;;3.17;;
42198;SDS011;27868;45.184;5.786;2022-10-31T13:28:05;8.50;;;3.38;;
42198;SDS011;27868;45.184;5.786;2022-10-31T13:30:59;7.65;;;3.15;;
42198;SDS011;27868;45.184;5.786;2022-10-31T13:33:52;9.05;;;3.00;;
42198;SDS011;27868;45.184;5.786;2022-10-31T13:36:42;8.75;;;3.17;;
42198;SDS011;27868;45.184;5.786;2022-10-31T13:39:49;13.23;;;3.20;;
42198;SDS011;27868;45.184;5.786;2022-10-31T13:46:21;6.10;;;2.78;;
42198;SDS011;27868;45.184;5.786;2022-10-31T13:52:16;10.18;;;3.45;;
42198;SDS011;27868;45.184;5.786;2022-10-31T13:58:27;8.18;;;3.00;;
42198;SDS011;27868;45.184;5.786;2022-10-31T14:01:18;9.77;;;3.55;;
42198;SDS011;27868;45.184;5.786;2022-10-31T14:04:07;9.02;;;3.00;;
42198;SDS011;27868;45.184;5.786;2022-10-31T14:07:05;6.97;;;2.72;;
42198;SDS011;27868;45.184;5.786;2022-10-31T14:09:53;8.13;;;2.83;;
42198;SDS011;27868;45.184;5.786;2022-10-31T14:12:41;11.20;;;2.95;;
42198;SDS011;27868;45.184;5.786;2022-10-31T14:15:28;9.48;;;3.03;;
42198;SDS011;27868;45.184;5.786;2022-10-31T14:18:21;9.25;;;2.80;;
42198;SDS011;27868;45.184;5.786;2022-10-31T14:30:13;6.32;;;2.60;;
42198;SDS011;27868;45.184;5.786;2022-10-31T14:33:01;11.43;;;3.35;;
42198;SDS011;27868;45.184;5.786;2022-10-31T14:36:07;10.15;;;3.03;;
42198;SDS011;27868;45.184;5.786;2022-10-31T14:38:58;9.95;;;3.20;;
42198;SDS011;27868;45.184;5.786;2022-10-31T14:51:00;13.20;;;3.63;;
42198;SDS011;27868;45.184;5.786;2022-10-31T14:53:51;12.35;;;3.50;;
42198;SDS011;27868;45.184;5.786;2022-10-31T14:56:41;9.98;;;3.78;;
42198;SDS011;27868;45.184;5.786;2022-10-31T14:59:35;9.35;;;3.10;;
42198;SDS011;27868;45.184;5.786;2022-10-31T15:02:37;9.50;;;3.30;;
42198;SDS011;27868;45.184;5.786;2022-10-31T15:05:30;15.15;;;3.95;;
42198;SDS011;27868;45.184;5.786;2022-10-31T15:08:32;13.10;;;3.80;;
42198;SDS011;27868;45.184;5.786;2022-10-31T15:11:19;5.95;;;3.00;;
42198;SDS011;27868;45.184;5.786;2022-10-31T15:14:17;7.60;;;3.05;;
42198;SDS011;27868;45.184;5.786;2022-10-31T15:17:08;12.63;;;3.00;;
42198;SDS011;27868;45.184;5.786;2022-10-31T15:19:55;7.85;;;2.63;;
42198;SDS011;27868;45.184;5.786;2022-10-31T15:22:41;9.88;;;3.00;;
42198;SDS011;27868;45.184;5.786;2022-10-31T15:25:27;13.20;;;3.63;;
42198;SDS011;27868;45.184;5.786;2022-10-31T15:28:23;12.13;;;3.25;;
42198;SDS011;27868;45.184;5.786;2022-10-31T15:31:13;8.23;;;3.00;;
42198;SDS011;27868;45.184;5.786;2022-10-31T15:34:05;7.28;;;2.35;;
42198;SDS011;27868;45.184;5.786;2022-10-31T15:36:58;10.07;;;3.05;;
42198;SDS011;27868;45.184;5.786;2022-10-31T15:39:43;8.77;;;3.10;;
42198;SDS011;27868;45.184;5.786;2022-10-31T15:45:19;11.38;;;3.30;;
42198;SDS011;27868;45.184;5.786;2022-10-31T15:51:00;9.10;;;4.63;;
42198;SDS011;27868;45.184;5.786;2022-10-31T15:53:49;10.05;;;4.47;;
42198;SDS011;27868;45.184;5.786;2022-10-31T15:56:35;11.18;;;4.35;;
42198;SDS011;27868;45.184;5.786;2022-10-31T15:59:22;9.15;;;3.90;;
42198;SDS011;27868;45.184;5.786;2022-10-31T16:02:12;11.55;;;3.63;;
42198;SDS011;27868;45.184;5.786;2022-10-31T16:04:59;9.63;;;3.97;;
42198;SDS011;27868;45.184;5.786;2022-10-31T16:07:48;9.13;;;3.95;;
42198;SDS011;27868;45.184;5.786;2022-10-31T16:10:34;10.95;;;4.88;;
42198;SDS011;27868;45.184;5.786;2022-10-31T16:13:20;10.32;;;5.55;;
42198;SDS011;27868;45.184;5.786;2022-10-31T16:16:17;16.02;;;7.35;;
42198;SDS011;27868;45.184;5.786;2022-10-31T16:19:04;34.65;;;15.50;;
42198;SDS011;27868;45.184;5.786;2022-10-31T16:22:14;16.17;;;8.30;;
42198;SDS011;27868;45.184;5.786;2022-10-31T16:28:01;13.75;;;6.03;;
42198;SDS011;27868;45.184;5.786;2022-10-31T16:30:48;9.50;;;3.40;;
42198;SDS011;27868;45.184;5.786;2022-10-31T16:33:43;13.40;;;3.67;;
42198;SDS011;27868;45.184;5.786;2022-10-31T16:39:12;10.18;;;4.40;;
42198;SDS011;27868;45.184;5.786;2022-10-31T16:41:57;11.35;;;3.67;;
42198;SDS011;27868;45.184;5.786;2022-10-31T16:44:43;8.70;;;3.20;;
42198;SDS011;27868;45.184;5.786;2022-10-31T16:47:30;8.93;;;3.60;;
42198;SDS011;27868;45.184;5.786;2022-10-31T16:50:16;12.95;;;4.18;;
42198;SDS011;27868;45.184;5.786;2022-10-31T16:53:01;11.63;;;3.67;;
42198;SDS011;27868;45.184;5.786;2022-10-31T16:58:36;15.75;;;3.63;;
42198;SDS011;27868;45.184;5.786;2022-10-31T17:01:21;26.25;;;3.92;;
42198;SDS011;27868;45.184;5.786;2022-10-31T17:04:07;10.70;;;3.55;;
42198;SDS011;27868;45.184;5.786;2022-10-31T17:06:55;20.15;;;3.35;;
42198;SDS011;27868;45.184;5.786;2022-10-31T17:09:40;11.23;;;4.00;;
42198;SDS011;27868;45.184;5.786;2022-10-31T17:12:24;28.25;;;4.80;;
42198;SDS011;27868;45.184;5.786;2022-10-31T17:15:34;9.00;;;3.35;;
42198;SDS011;27868;45.184;5.786;2022-10-31T17:18:24;11.35;;;2.97;;
42198;SDS011;27868;45.184;5.786;2022-10-31T17:21:09;9.70;;;2.97;;
42198;SDS011;27868;45.184;5.786;2022-10-31T17:24:03;10.68;;;3.45;;
42198;SDS011;27868;45.184;5.786;2022-10-31T17:26:48;7.85;;;2.70;;
42198;SDS011;27868;45.184;5.786;2022-10-31T17:29:33;8.30;;;3.22;;
42198;SDS011;27868;45.184;5.786;2022-10-31T17:32:18;12.50;;;4.05;;
42198;SDS011;27868;45.184;5.786;2022-10-31T17:35:02;11.52;;;3.53;;
42198;SDS011;27868;45.184;5.786;2022-10-31T17:37:48;10.20;;;3.20;;
42198;SDS011;27868;45.184;5.786;2022-10-31T17:40:35;9.60;;;3.28;;
42198;SDS011;27868;45.184;5.786;2022-10-31T17:43:21;10.32;;;3.00;;
42198;SDS011;27868;45.184;5.786;2022-10-31T17:46:10;9.00;;;3.53;;
42198;SDS011;27868;45.184;5.786;2022-10-31T17:48:54;9.57;;;3.42;;
42198;SDS011;27868;45.184;5.786;2022-10-31T17:51:39;9.77;;;2.70;;
42198;SDS011;27868;45.184;5.786;2022-10-31T17:54:23;9.00;;;2.80;;
42198;SDS011;27868;45.184;5.786;2022-10-31T17:57:08;7.25;;;2.70;;
42198;SDS011;27868;45.184;5.786;2022-10-31T17:59:52;8.95;;;2.50;;
42198;SDS011;27868;45.184;5.786;2022-10-31T18:02:37;7.18;;;2.33;;
42198;SDS011;27868;45.184;5.786;2022-10-31T18:05:22;8.13;;;2.70;;
42198;SDS011;27868;45.184;5.786;2022-10-31T18:08:06;7.22;;;2.85;;
42198;SDS011;27868;45.184;5.786;2022-10-31T18:10:51;5.75;;;2.20;;
42198;SDS011;27868;45.184;5.786;2022-10-31T18:13:36;6.43;;;2.20;;
42198;SDS011;27868;45.184;5.786;2022-10-31T18:16:22;5.60;;;2.28;;
42198;SDS011;27868;45.184;5.786;2022-10-31T18:19:09;12.40;;;2.70;;
42198;SDS011;27868;45.184;5.786;2022-10-31T18:21:55;6.45;;;2.92;;
42198;SDS011;27868;45.184;5.786;2022-10-31T18:24:40;8.00;;;3.50;;
42198;SDS011;27868;45.184;5.786;2022-10-31T18:27:25;9.55;;;4.05;;
42198;SDS011;27868;45.184;5.786;2022-10-31T18:30:09;8.93;;;3.92;;
42198;SDS011;27868;45.184;5.786;2022-10-31T18:32:54;13.82;;;5.45;;
42198;SDS011;27868;45.184;5.786;2022-10-31T18:35:39;13.98;;;5.63;;
42198;SDS011;27868;45.184;5.786;2022-10-31T18:38:23;15.50;;;6.22;;
42198;SDS011;27868;45.184;5.786;2022-10-31T18:41:08;13.90;;;6.68;;
42198;SDS011;27868;45.184;5.786;2022-10-31T18:43:55;14.27;;;5.70;;
42198;SDS011;27868;45.184;5.786;2022-10-31T18:46:42;11.03;;;5.73;;
42198;SDS011;27868;45.184;5.786;2022-10-31T18:49:27;16.17;;;5.93;;
42198;SDS011;27868;45.184;5.786;2022-10-31T18:52:15;11.70;;;4.50;;
42198;SDS011;27868;45.184;5.786;2022-10-31T18:55:00;14.68;;;4.55;;
42198;SDS011;27868;45.184;5.786;2022-10-31T18:57:44;10.48;;;4.13;;
42198;SDS011;27868;45.184;5.786;2022-10-31T19:00:29;10.57;;;3.67;;
42198;SDS011;27868;45.184;5.786;2022-10-31T19:03:14;10.65;;;4.18;;
42198;SDS011;27868;45.184;5.786;2022-10-31T19:05:58;13.25;;;4.63;;